Time;durP1;ratioP1;P1;durP2;ratioP2;P2;SDS_P1;SDS_P2;PMS_P1;PMS_P2;Temp;Humidity;BMP_temperature;BMP_pressure;BME280_temperature;BME280_humidity;BME280_pressure;Samples;Min_cycle;Max_cycle;Signal;HPM_P1;HPM_P2
2023/09/16 00:00:32;;;;;;;6.70;6.00;;;;;;;18.76;nan;99242.47;4934273;28;20535;-91
2023/09/16 00:03:18;;;;;;;;;;;;;;;;;;;;;
2023/09/16 00:06:03;;;;;;;11.93;6.60;;;;;;;18.79;nan;99252.81;4924139;28;20450;-89
2023/09/16 00:08:40;;;;;;;;;;;;;;;;;;;;;
2023/09/16 00:11:30;;;;;;;;;;;;;;;;;;;;;
2023/09/16 00:14:09;;;;;;;7.07;5.53;;;;;;;18.79;nan;99260.81;4922333;28;20431;-89
2023/09/16 00:16:52;;;;;;;8.37;6.53;;;;;;;18.78;nan;99264.44;4921574;28;20995;-91
2023/09/16 00:19:41;;;;;;;9.13;6.30;;;;;;;18.79;nan;99266.13;4922373;28;20587;-89
2023/09/16 00:22:26;;;;;;;;;;;;;;;;;;;;;
2023/09/16 00:25:07;;;;;;;;;;;;;;;;;;;;;
2023/09/16 00:28:02;;;;;;;;;;;;;;;;;;;;;
2023/09/16 00:30:56;;;;;;;;;;;;;;;;;;;;;
2023/09/16 00:33:26;;;;;;;6.60;5.90;;;;;;;18.64;nan;99257.03;4922279;28;20439;-89
2023/09/16 00:36:11;;;;;;;7.23;6.23;;;;;;;18.62;nan;99266.97;4921192;28;20600;-90
2023/09/16 00:38:53;;;;;;;6.07;5.57;;;;;;;18.60;nan;99268.13;4919217;28;20834;-90
2023/09/16 00:41:39;;;;;;;;;;;;;;;;;;;;;
2023/09/16 00:44:15;;;;;;;7.17;5.67;;;;;;;18.42;nan;99271.69;4920800;28;20529;-90
2023/09/16 00:46:53;;;;;;;7.70;6.73;;;;;;;18.40;nan;99271.00;4923204;28;20974;-92
2023/09/16 00:49:34;;;;;;;;;;;;;;;;;;;;;
2023/09/16 00:52:11;;;;;;;7.00;6.30;;;;;;;18.32;nan;99277.09;4921811;28;20512;-89
2023/09/16 00:54:52;;;;;;;8.77;7.17;;;;;;;18.31;nan;99272.78;4920085;28;20476;-89
2023/09/16 00:57:41;;;;;;;8.73;6.83;;;;;;;18.26;nan;99269.75;4923791;28;20443;-91
2023/09/16 01:00:17;;;;;;;9.40;7.30;;;;;;;18.20;nan;99272.19;4912514;28;20471;-90
2023/09/16 01:02:49;;;;;;;8.40;7.47;;;;;;;18.21;nan;99272.03;4924714;28;20855;-90
2023/09/16 01:05:40;;;;;;;;;;;;;;;;;;;;;
2023/09/16 01:08:21;;;;;;;8.93;7.10;;;;;;;18.21;nan;99276.53;4919623;28;20514;-90
2023/09/16 01:11:05;;;;;;;6.93;5.83;;;;;;;18.19;nan;99275.84;4931196;28;20595;-90
2023/09/16 01:13:57;;;;;;;;;;;;;;;;;;;;;
2023/09/16 01:16:47;;;;;;;;;;;;;;;;;;;;;
2023/09/16 01:19:41;;;;;;;8.23;7.13;;;;;;;18.12;nan;99280.94;4930440;28;20484;-90
2023/09/16 01:22:26;;;;;;;9.83;8.03;;;;;;;18.07;nan;99273.44;4926015;28;20467;-90
2023/09/16 01:25:25;;;;;;;;;;;;;;;;;;;;;
2023/09/16 01:28:00;;;;;;;;;;;;;;;;;;;;;
2023/09/16 01:31:00;;;;;;;;;;;;;;;;;;;;;
2023/09/16 01:34:20;;;;;;;9.63;6.23;;;;;;;18.12;nan;99279.13;4933514;28;20459;-88
2023/09/16 01:37:25;;;;;;;;;;;;;;;;;;;;;
2023/09/16 01:40:29;;;;;;;5.73;5.10;;;;;;;18.05;nan;99286.03;4942823;28;20554;-90
2023/09/16 01:43:14;;;;;;;7.13;5.50;;;;;;;18.04;nan;99286.19;4947222;28;20789;-90
2023/09/16 01:45:51;;;;;;;;;;;;;;;;;;;;;
2023/09/16 01:48:41;;;;;;;8.03;6.80;;;;;;;18.02;nan;99288.16;4945723;28;21051;-91
2023/09/16 01:51:24;;;;;;;;;;;;;;;;;;;;;
2023/09/16 01:54:09;;;;;;;11.47;7.77;;;;;;;18.02;nan;99277.53;4947391;28;20487;-91
2023/09/16 01:57:15;;;;;;;;;;;;;;;;;;;;;
2023/09/16 01:59:51;;;;;;;;;;;;;;;;;;;;;
2023/09/16 02:02:47;;;;;;;;;;;;;;;;;;;;;
2023/09/16 02:05:39;;;;;;;;;;;;;;;;;;;;;
2023/09/16 02:08:13;;;;;;;11.93;5.30;;;;;;;17.62;nan;99274.31;4945207;28;20453;-90
2023/09/16 02:10:42;;;;;;;5.63;5.07;;;;;;;17.61;nan;99270.00;4937559;28;20453;-89
2023/09/16 02:13:39;;;;;;;;;;;;;;;;;;;;;
2023/09/16 02:16:37;;;;;;;7.93;5.80;;;;;;;17.64;nan;99274.16;4926103;28;20456;-90
2023/09/16 02:19:22;;;;;;;8.90;5.60;;;;;;;17.65;nan;99276.66;4925354;28;20476;-90
2023/09/16 02:22:09;;;;;;;;;;;;;;;;;;;;;
2023/09/16 02:24:48;;;;;;;;;;;;;;;;;;;;;
2023/09/16 02:27:21;;;;;;;12.80;6.67;;;;;;;17.60;nan;99278.09;4923495;28;20455;-89
2023/09/16 02:29:54;;;;;;;7.27;6.57;;;;;;;17.53;nan;99288.50;4923020;28;20472;-89
2023/09/16 02:32:25;;;;;;;8.53;6.23;;;;;;;17.50;nan;99278.19;4926302;28;20959;-90
2023/09/16 02:35:10;;;;;;;10.00;5.60;;;;;;;17.51;nan;99279.84;4926508;28;20465;-89
2023/09/16 02:37:36;;;;;;;5.97;5.37;;;;;;;17.54;nan;99278.72;4923671;28;20464;-90
2023/09/16 02:40:06;;;;;;;6.73;5.80;;;;;;;17.55;nan;99275.91;4922720;28;20451;-91
2023/09/16 02:42:34;;;;;;;6.53;5.30;;;;;;;17.56;nan;99277.56;4927364;28;20459;-90
2023/09/16 02:45:07;;;;;;;4.90;4.17;;;;;;;17.57;nan;99268.59;4921292;28;20467;-89
2023/09/16 02:47:42;;;;;;;5.20;4.70;;;;;;;17.59;nan;99268.47;4925893;28;20215;-89
2023/09/16 02:50:20;;;;;;;;;;;;;;;;;;;;;
2023/09/16 02:52:51;;;;;;;5.57;5.00;;;;;;;17.60;nan;99256.84;4918135;28;20472;-89
2023/09/16 02:55:28;;;;;;;6.70;5.00;;;;;;;17.58;nan;99257.03;4923427;28;20456;-89
2023/09/16 02:58:06;;;;;;;5.47;4.97;;;;;;;17.57;nan;99259.81;4929230;28;20599;-90
2023/09/16 03:00:37;;;;;;;10.20;6.37;;;;;;;17.55;nan;99262.63;4927770;28;20468;-88
2023/09/16 03:03:06;;;;;;;7.20;5.73;;;;;;;17.54;nan;99257.47;4928228;28;20814;-89
2023/09/16 03:05:39;;;;;;;8.50;5.13;;;;;;;17.54;nan;99254.81;4923608;28;21099;-89
2023/09/16 03:08:05;;;;;;;7.60;6.37;;;;;;;17.55;nan;99248.50;4917397;28;20500;-89
2023/09/16 03:10:38;;;;;;;7.70;5.97;;;;;;;17.53;nan;99250.50;4916486;28;20540;-90
2023/09/16 03:13:14;;;;;;;6.30;5.70;;;;;;;17.50;nan;99250.78;4922011;28;20560;-90
2023/09/16 03:16:35;;;;;;;;;;;;;;;;;;;;;
2023/09/16 03:19:18;;;;;;;;;;;;;;;;;;;;;
2023/09/16 03:21:54;;;;;;;4.93;4.10;;;;;;;17.43;nan;99256.69;4918831;28;20445;-90
2023/09/16 03:24:20;;;;;;;4.00;3.67;;;;;;;17.43;nan;99253.19;4923990;28;20466;-90
2023/09/16 03:26:51;;;;;;;4.20;3.50;;;;;;;17.36;nan;99255.63;4924571;28;20674;-89
2023/09/16 03:29:26;;;;;;;5.03;3.90;;;;;;;17.27;nan;99251.22;4917570;28;20316;-89
2023/09/16 03:31:55;;;;;;;3.73;3.43;;;;;;;17.15;nan;99247.09;4932464;28;20443;-89
2023/09/16 03:34:32;;;;;;;5.90;5.00;;;;;;;17.06;nan;99247.97;4921994;28;20445;-90
2023/09/16 03:37:14;;;;;;;5.10;3.40;;;;;;;17.00;nan;99244.94;4920654;28;20433;-89
2023/09/16 03:39:47;;;;;;;5.00;3.50;;;;;;;16.99;nan;99234.47;4916780;28;20480;-88
2023/09/16 03:42:16;;;;;;;4.47;3.53;;;;;;;16.98;nan;99233.63;4918142;28;20734;-89
2023/09/16 03:44:44;;;;;;;5.27;4.40;;;;;;;16.94;nan;99234.91;4921313;28;21064;-90
2023/09/16 03:47:20;;;;;;;;;;;;;;;;;;;;;
2023/09/16 03:49:49;;;;;;;4.80;3.73;;;;;;;16.92;nan;99223.59;4919158;28;20216;-90
2023/09/16 03:52:15;;;;;;;5.30;4.67;;;;;;;16.94;nan;99221.66;4918229;28;20459;-89
2023/09/16 03:54:43;;;;;;;4.80;4.30;;;;;;;16.97;nan;99216.03;4907706;28;20193;-89
2023/09/16 03:57:22;;;;;;;7.20;4.83;;;;;;;16.98;nan;99212.41;4920593;28;20452;-88
2023/09/16 03:59:53;;;;;;;5.30;4.40;;;;;;;16.96;nan;99218.84;4915766;28;20480;-88
2023/09/16 04:02:21;;;;;;;6.30;5.13;;;;;;;16.91;nan;99214.00;4919183;28;20435;-88
2023/09/16 04:04:57;;;;;;;;;;;;;;;;;;;;;
2023/09/16 04:07:53;;;;;;;;;;;;;;;;;;;;;
2023/09/16 04:10:31;;;;;;;7.77;5.63;;;;;;;16.78;nan;99208.19;4918174;28;20436;-89
2023/09/16 04:13:16;;;;;;;9.53;5.80;;;;;;;16.77;nan;99206.53;4922149;28;20436;-90
2023/09/16 04:15:51;;;;;;;;;;;;;;;;;;;;;
2023/09/16 04:18:35;;;;;;;;;;;;;;;;;;;;;
2023/09/16 04:21:04;;;;;;;7.27;5.37;;;;;;;16.82;nan;99201.59;4919602;28;20465;-88
2023/09/16 04:23:34;;;;;;;6.93;5.97;;;;;;;16.83;nan;99192.66;4920628;28;20819;-88
2023/09/16 04:26:08;;;;;;;8.63;6.70;;;;;;;16.85;nan;99192.50;4922983;28;20471;-88
2023/09/16 04:28:46;;;;;;;9.43;6.13;;;;;;;16.87;nan;99186.06;4911459;28;20457;-89
2023/09/16 04:31:12;;;;;;;5.67;5.13;;;;;;;16.89;nan;99183.28;4901463;28;20564;-89
2023/09/16 04:33:58;;;;;;;8.07;5.70;;;;;;;16.89;nan;99185.94;4918837;28;20464;-89
2023/09/16 04:36:23;;;;;;;6.50;5.27;;;;;;;16.81;nan;99184.03;4919807;28;20533;-89
2023/09/16 04:38:49;;;;;;;7.27;5.83;;;;;;;16.73;nan;99183.88;4918873;28;20889;-89
2023/09/16 04:41:21;;;;;;;5.10;4.53;;;;;;;16.65;nan;99184.63;4917077;28;20604;-89
2023/09/16 04:43:49;;;;;;;4.13;3.80;;;;;;;16.56;nan;99188.16;4924116;28;20453;-89
2023/09/16 04:46:22;;;;;;;7.37;4.70;;;;;;;16.46;nan;99188.19;4922805;28;20463;-89
2023/09/16 04:48:48;;;;;;;4.97;4.53;;;;;;;16.37;nan;99181.13;4921780;28;20558;-89
2023/09/16 04:51:22;;;;;;;4.73;4.43;;;;;;;16.33;nan;99180.56;4920551;28;20452;-90
2023/09/16 04:53:50;;;;;;;5.60;5.00;;;;;;;16.30;nan;99172.06;4922705;28;20531;-89
2023/09/16 04:56:16;;;;;;;5.32;4.18;;;;;;;16.27;nan;99167.06;4920704;28;20456;-90
2023/09/16 04:58:44;;;;;;;4.88;4.20;;;;;;;16.26;nan;99166.22;4921716;28;20242;-89
2023/09/16 05:01:12;;;;;;;4.97;4.10;;;;;;;16.24;nan;99165.53;4918405;28;20212;-88
2023/09/16 05:03:37;;;;;;;5.90;5.20;;;;;;;16.17;nan;99161.78;4922054;28;20211;-89
2023/09/16 05:06:04;;;;;;;8.00;4.60;;;;;;;16.10;nan;99179.25;4918433;28;20498;-89
2023/09/16 05:08:30;;;;;;;5.30;4.80;;;;;;;16.01;nan;99182.75;4916378;28;20466;-88
2023/09/16 05:10:57;;;;;;;8.83;5.47;;;;;;;15.91;nan;99180.97;4919150;28;21013;-88
2023/09/16 05:13:23;;;;;;;7.60;5.03;;;;;;;15.85;nan;99181.53;4922635;28;20939;-89
2023/09/16 05:15:50;;;;;;;5.20;4.68;;;;;;;15.88;nan;99175.13;4921540;28;20210;-89
2023/09/16 05:18:16;;;;;;;7.20;5.30;;;;;;;15.95;nan;99175.38;4915457;28;20201;-88
2023/09/16 05:20:42;;;;;;;6.47;4.75;;;;;;;16.02;nan;99168.53;4920182;28;20668;-89
2023/09/16 05:23:12;;;;;;;4.93;4.47;;;;;;;16.11;nan;99159.72;4918335;28;20206;-89
2023/09/16 05:25:45;;;;;;;5.33;4.30;;;;;;;16.20;nan;99168.59;4915628;28;20194;-88
2023/09/16 05:28:11;;;;;;;6.97;5.85;;;;;;;16.28;nan;99171.38;4918010;28;20501;-89
2023/09/16 05:30:36;;;;;;;6.70;4.20;;;;;;;16.35;nan;99177.78;4918251;28;20239;-90
2023/09/16 05:33:02;;;;;;;5.40;4.90;;;;;;;16.41;nan;99182.47;4922376;28;20211;-91
2023/09/16 05:35:28;;;;;;;8.63;5.40;;;;;;;16.47;nan;99184.56;4917090;28;20194;-89
2023/09/16 05:37:53;;;;;;;7.77;5.40;;;;;;;16.53;nan;99194.59;4915322;28;20472;-89
2023/09/16 05:40:19;;;;;;;10.07;5.67;;;;;;;16.57;nan;99195.13;4915209;28;20212;-90
2023/09/16 05:42:47;;;;;;;6.07;4.30;;;;;;;16.62;nan;99197.34;4919414;28;20204;-89
2023/09/16 05:45:13;;;;;;;5.65;5.05;;;;;;;16.65;nan;99202.34;4919860;28;20537;-90
2023/09/16 05:47:41;;;;;;;8.27;6.37;;;;;;;16.67;nan;99206.53;4917532;28;20872;-88
2023/09/16 05:50:07;;;;;;;5.90;5.10;;;;;;;16.72;nan;99214.06;4906854;28;20686;-89
2023/09/16 05:52:33;;;;;;;6.60;5.30;;;;;;;16.76;nan;99210.94;4923243;28;20479;-89
2023/09/16 05:54:59;;;;;;;7.30;5.23;;;;;;;16.78;nan;99213.50;4919732;28;20452;-89
2023/09/16 05:57:24;;;;;;;6.37;5.77;;;;;;;16.74;nan;99212.06;4916319;28;20287;-90
2023/09/16 05:59:50;;;;;;;7.10;6.00;;;;;;;16.74;nan;99214.72;4917188;28;20220;-89
2023/09/16 06:02:17;;;;;;;5.87;4.80;;;;;;;16.75;nan;99219.06;4919168;28;20197;-88
2023/09/16 06:04:43;;;;;;;6.17;5.40;;;;;;;16.75;nan;99209.28;4897826;28;20811;-88
2023/09/16 06:07:09;;;;;;;7.33;5.40;;;;;;;16.75;nan;99208.44;4920768;28;20569;-89
2023/09/16 06:09:34;;;;;;;8.70;5.03;;;;;;;16.76;nan;99210.13;4923797;28;21341;-89
2023/09/16 06:12:00;;;;;;;9.60;5.93;;;;;;;16.78;nan;99216.97;4916017;28;20207;-89
2023/09/16 06:14:26;;;;;;;6.67;6.03;;;;;;;16.84;nan;99210.25;4916679;28;20460;-89
2023/09/16 06:16:52;;;;;;;6.53;5.53;;;;;;;16.88;nan;99208.97;4920064;28;20213;-89
2023/09/16 06:19:18;;;;;;;6.83;5.07;;;;;;;16.94;nan;99212.84;4922042;28;20469;-88
2023/09/16 06:21:43;;;;;;;6.43;5.23;;;;;;;17.01;nan;99208.59;4922139;28;20776;-89
2023/09/16 06:24:09;;;;;;;6.80;6.03;;;;;;;17.07;nan;99209.84;4926705;28;20585;-88
2023/09/16 06:26:35;;;;;;;6.53;5.20;;;;;;;17.15;nan;99209.94;4924356;28;20427;-90
2023/09/16 06:29:01;;;;;;;6.47;5.07;;;;;;;17.23;nan;99221.47;4930285;28;20651;-90
2023/09/16 06:31:26;;;;;;;8.83;6.03;;;;;;;17.28;nan;99225.50;4933257;28;20225;-89
2023/09/16 06:33:54;;;;;;;13.83;5.73;;;;;;;17.32;nan;99222.41;4929806;28;20954;-88
2023/09/16 06:36:20;;;;;;;9.40;5.67;;;;;;;17.38;nan;99223.63;4932766;28;20199;-88
2023/09/16 06:38:45;;;;;;;7.27;4.57;;;;;;;17.43;nan;99235.44;4937133;28;20989;-89
2023/09/16 06:41:16;;;;;;;6.50;4.70;;;;;;;17.49;nan;99234.00;4924204;28;20201;-90
2023/09/16 06:43:42;;;;;;;8.33;5.23;;;;;;;17.59;nan;99244.56;4928389;28;20460;-89
2023/09/16 06:46:08;;;;;;;6.40;5.70;;;;;;;17.68;nan;99259.59;4924570;28;20538;-89
2023/09/16 06:48:34;;;;;;;7.33;6.00;;;;;;;17.74;nan;99258.13;4922306;28;21361;-89
2023/09/16 06:50:59;;;;;;;6.90;5.33;;;;;;;17.79;nan;99248.75;4924383;28;20206;-90
2023/09/16 06:53:25;;;;;;;6.93;5.57;;;;;;;17.86;nan;99241.84;4924285;28;20570;-89
2023/09/16 06:55:50;;;;;;;8.27;6.57;;;;;;;17.98;nan;99233.63;4931800;28;20209;-89
2023/09/16 06:58:20;;;;;;;8.37;5.67;;;;;;;18.09;nan;99242.22;4933328;28;20547;-88
2023/09/16 07:00:48;;;;;;;7.10;5.73;;;;;;;18.21;nan;99232.16;4928273;28;20225;-90
2023/09/16 07:03:13;;;;;;;9.27;6.57;;;;;;;18.31;nan;99234.72;4924623;28;21015;-89
2023/09/16 07:05:39;;;;;;;7.73;6.07;;;;;;;18.39;nan;99232.13;4922615;28;20448;-88
2023/09/16 07:08:05;;;;;;;7.60;5.70;;;;;;;18.49;nan;99238.13;4927255;28;20208;-89
2023/09/16 07:10:30;;;;;;;5.50;4.50;;;;;;;18.60;nan;99229.06;4935917;28;20768;-91
2023/09/16 07:12:56;;;;;;;8.33;5.70;;;;;;;18.70;nan;99227.13;4934446;28;20193;-89
2023/09/16 07:15:23;;;;;;;5.80;4.70;;;;;;;18.84;nan;99236.34;4926297;28;20224;-89
2023/09/16 07:17:51;;;;;;;7.60;5.40;;;;;;;18.95;nan;99249.38;4924526;28;20457;-89
2023/09/16 07:20:16;;;;;;;8.03;6.13;;;;;;;19.05;nan;99248.44;4934494;28;20487;-91
2023/09/16 07:22:42;;;;;;;6.20;5.60;;;;;;;19.13;nan;99243.97;4931121;28;20472;-90
2023/09/16 07:25:08;;;;;;;6.70;6.00;;;;;;;19.20;nan;99242.34;4926422;28;20236;-89
2023/09/16 07:27:34;;;;;;;7.07;6.23;;;;;;;19.28;nan;99238.00;4928046;28;20197;-90
2023/09/16 07:29:59;;;;;;;10.60;7.40;;;;;;;19.41;nan;99235.69;4933954;28;20512;-89
2023/09/16 07:32:27;;;;;;;7.70;5.80;;;;;;;19.61;nan;99237.09;4931041;28;20958;-91
2023/09/16 07:34:53;;;;;;;10.37;6.30;;;;;;;19.91;nan;99236.63;4926566;28;20496;-90
2023/09/16 07:37:19;;;;;;;7.00;5.90;;;;;;;20.23;nan;99233.13;4921903;28;20307;-90
2023/09/16 07:39:46;;;;;;;9.37;6.60;;;;;;;20.47;nan;99235.75;4907279;28;20222;-90
2023/09/16 07:42:14;;;;;;;9.47;6.27;;;;;;;20.74;nan;99231.03;4927675;28;20817;-90
2023/09/16 07:44:40;;;;;;;9.83;6.77;;;;;;;21.02;nan;99235.91;4926847;28;20459;-90
2023/09/16 07:47:06;;;;;;;7.53;6.00;;;;;;;21.24;nan;99236.97;4927300;28;20456;-92
2023/09/16 07:49:36;;;;;;;6.57;5.50;;;;;;;21.37;nan;99245.25;4929467;28;20199;-91
2023/09/16 07:52:06;;;;;;;8.07;6.57;;;;;;;21.48;nan;99252.91;4933098;28;20230;-91
2023/09/16 07:54:35;;;;;;;5.80;5.20;;;;;;;21.54;nan;99248.69;4927437;28;20700;-91
2023/09/16 07:57:00;;;;;;;7.47;5.97;;;;;;;21.57;nan;99243.81;4945342;28;20429;-90
2023/09/16 07:59:32;;;;;;;8.30;6.60;;;;;;;21.60;nan;99242.63;4949551;28;20467;-90
2023/09/16 08:02:01;;;;;;;7.83;5.97;;;;;;;21.61;nan;99245.13;4962762;28;20778;-89
2023/09/16 08:04:34;;;;;;;7.33;5.83;;;;;;;21.62;nan;99236.09;4962021;28;20484;-90
2023/09/16 08:07:00;;;;;;;7.63;5.67;;;;;;;21.68;nan;99244.41;4945775;28;20440;-90
2023/09/16 08:09:26;;;;;;;7.13;6.20;;;;;;;21.74;nan;99241.00;4924677;28;20434;-91
2023/09/16 08:11:51;;;;;;;6.03;5.17;;;;;;;21.82;nan;99249.00;4930203;28;20201;-90
2023/09/16 08:14:22;;;;;;;6.90;5.20;;;;;;;21.87;nan;99257.28;4934969;28;20209;-90
2023/09/16 08:16:47;;;;;;;5.83;5.10;;;;;;;21.93;nan;99259.28;4945663;28;20223;-91
2023/09/16 08:19:16;;;;;;;6.13;5.57;;;;;;;21.99;nan;99257.72;4926157;28;20566;-91
2023/09/16 08:21:45;;;;;;;8.40;6.70;;;;;;;22.02;nan;99252.00;4926415;28;20495;-90
2023/09/16 08:24:14;;;;;;;5.83;5.20;;;;;;;22.06;nan;99254.16;4923250;28;20518;-90
2023/09/16 08:26:39;;;;;;;7.50;6.23;;;;;;;22.14;nan;99255.91;4924852;28;20439;-90
2023/09/16 08:29:05;;;;;;;8.53;5.83;;;;;;;22.19;nan;99256.22;4922168;28;20514;-91
2023/09/16 08:31:30;;;;;;;5.27;4.47;;;;;;;22.26;nan;99253.66;4921829;28;20212;-90
2023/09/16 08:34:01;;;;;;;7.80;5.97;;;;;;;22.29;nan;99258.66;4920697;28;20214;-92
2023/09/16 08:36:27;;;;;;;8.07;5.40;;;;;;;22.30;nan;99258.47;4920106;28;20394;-91
2023/09/16 08:38:53;;;;;;;6.73;6.13;;;;;;;22.35;nan;99257.09;4919855;28;20675;-90
2023/09/16 08:41:28;;;;;;;7.10;5.80;;;;;;;22.37;nan;99252.41;4922229;28;20785;-90
2023/09/16 08:44:01;;;;;;;6.70;6.00;;;;;;;22.39;nan;99261.91;4921620;28;20197;-92
2023/09/16 08:46:41;;;;;;;6.37;5.80;;;;;;;22.41;nan;99259.84;4919199;28;20519;-92
2023/09/16 08:49:12;;;;;;;6.57;5.20;;;;;;;22.45;nan;99265.69;4924275;28;20610;-90
2023/09/16 08:51:43;;;;;;;7.00;6.00;;;;;;;22.49;nan;99266.97;4922820;28;20470;-89
2023/09/16 08:54:10;;;;;;;10.60;6.27;;;;;;;22.56;nan;99267.91;4916770;28;20452;-89
2023/09/16 08:56:36;;;;;;;9.80;5.77;;;;;;;22.60;nan;99271.91;4920757;28;20575;-90
2023/09/16 08:59:12;;;;;;;7.10;6.40;;;;;;;22.62;nan;99266.34;4922348;28;20823;-90
2023/09/16 09:01:38;;;;;;;7.50;6.10;;;;;;;22.68;nan;99262.94;4917123;28;20949;-89
2023/09/16 09:04:04;;;;;;;7.30;6.03;;;;;;;22.75;nan;99263.88;4921783;28;20439;-90
2023/09/16 09:06:30;;;;;;;6.50;5.77;;;;;;;22.83;nan;99268.31;4920846;28;20205;-90
2023/09/16 09:08:56;;;;;;;8.70;7.70;;;;;;;22.90;nan;99263.84;4924183;28;20435;-90
2023/09/16 09:11:25;;;;;;;6.10;5.30;;;;;;;22.97;nan;99257.59;4923569;28;20482;-89
2023/09/16 09:13:54;;;;;;;6.80;5.57;;;;;;;23.03;nan;99255.19;4921150;28;20197;-90
2023/09/16 09:16:22;;;;;;;6.67;6.07;;;;;;;23.04;nan;99256.88;4920711;28;20515;-89
2023/09/16 09:18:50;;;;;;;7.03;5.60;;;;;;;23.07;nan;99261.84;4922484;28;20441;-89
2023/09/16 09:21:17;;;;;;;7.07;5.77;;;;;;;23.07;nan;99265.34;4919239;28;20471;-90
2023/09/16 09:23:43;;;;;;;5.97;5.40;;;;;;;23.06;nan;99265.53;4916897;28;20464;-89
2023/09/16 09:26:10;;;;;;;5.80;5.30;;;;;;;22.99;nan;99268.13;4918017;28;20396;-89
2023/09/16 09:28:36;;;;;;;7.20;5.10;;;;;;;22.99;nan;99272.66;4922951;28;20213;-90
2023/09/16 09:31:02;;;;;;;6.77;5.40;;;;;;;23.02;nan;99264.25;4922745;28;20733;-89
2023/09/16 09:33:28;;;;;;;5.13;4.73;;;;;;;22.99;nan;99264.63;4922755;28;20610;-89
2023/09/16 09:36:13;;;;;;;5.60;4.97;;;;;;;22.97;nan;99259.44;4922076;28;20284;-90
2023/09/16 09:38:46;;;;;;;6.17;4.93;;;;;;;22.96;nan;99263.16;4922163;28;20469;-90
2023/09/16 09:41:13;;;;;;;4.43;4.03;;;;;;;22.96;nan;99260.47;4921787;28;21208;-91
2023/09/16 09:43:38;;;;;;;4.30;3.90;;;;;;;22.99;nan;99256.59;4922762;28;20468;-89
2023/09/16 09:46:04;;;;;;;4.93;4.20;;;;;;;22.98;nan;99261.13;4925355;28;21000;-90
2023/09/16 09:48:35;;;;;;;5.93;4.50;;;;;;;23.04;nan;99263.06;4926013;28;20217;-91
2023/09/16 09:51:03;;;;;;;7.00;4.87;;;;;;;23.07;nan;99262.69;4921005;28;20980;-90
2023/09/16 09:53:33;;;;;;;5.43;4.93;;;;;;;23.16;nan;99263.41;4926002;28;20434;-92
2023/09/16 10:30:13;;;;;;;5.90;5.30;;;;;;;24.79;54.79;99229.59;5084968;27;20324;-79
2023/09/16 10:32:39;;;;;;;5.57;4.97;;;;;;;24.95;54.27;99234.63;5076210;28;20462;-79
2023/09/16 10:35:06;;;;;;;4.97;4.07;;;;;;;25.17;53.92;99232.69;5077696;28;20523;-80
2023/09/16 10:37:33;;;;;;;8.90;5.10;;;;;;;25.48;53.17;99231.34;5080135;28;20470;-80
2023/09/16 10:39:59;;;;;;;5.13;4.63;;;;;;;25.66;52.09;99218.13;5075594;28;20454;-81
2023/09/16 10:42:26;;;;;;;5.60;4.90;;;;;;;25.87;51.98;99225.22;5080961;28;20540;-80
2023/09/16 10:44:54;;;;;;;5.27;4.77;;;;;;;25.98;51.17;99218.41;5074132;28;20445;-77
2023/09/16 10:47:22;;;;;;;7.27;5.63;;;;;;;26.11;50.85;99222.94;5073133;28;21044;-80
2023/09/16 10:49:47;;;;;;;6.30;5.70;;;;;;;26.19;50.41;99218.19;5078461;28;20521;-80
2023/09/16 10:52:18;;;;;;;5.10;4.50;;;;;;;26.24;50.11;99201.38;5078867;28;20454;-80
2023/09/16 10:55:15;;;;;;;5.20;4.70;;;;;;;26.30;50.30;99197.03;5079792;28;20204;-80
2023/09/16 10:57:49;;;;;;;5.30;4.80;;;;;;;26.41;50.05;99191.00;5078823;28;20445;-80
2023/09/16 11:00:21;;;;;;;5.30;4.80;;;;;;;26.49;50.05;99194.31;5077284;28;20482;-81
2023/09/16 11:02:51;;;;;;;5.60;4.47;;;;;;;26.64;50.15;99185.19;5077914;28;20504;-81
2023/09/16 11:05:16;;;;;;;6.13;5.53;;;;;;;26.55;49.56;99176.50;5080973;28;20454;-83
2023/09/16 11:07:42;;;;;;;6.13;4.97;;;;;;;26.38;49.88;99180.66;5087456;28;20538;-85
2023/09/16 11:10:09;;;;;;;5.47;4.60;;;;;;;26.35;49.96;99186.47;5089760;28;20204;-85
2023/09/16 11:12:35;;;;;;;5.90;4.67;;;;;;;26.39;49.98;99188.53;5091895;28;20200;-83
2023/09/16 11:15:10;;;;;;;6.37;5.20;;;;;;;26.61;49.96;99183.75;5077793;28;20452;-84
2023/09/16 11:17:41;;;;;;;5.30;4.33;;;;;;;26.71;49.79;99183.31;5096429;28;20448;-85
2023/09/16 11:20:32;;;;;;;9.13;5.33;;;;;;;26.79;49.64;99187.59;5095992;28;20469;-86
2023/09/16 11:23:01;;;;;;;5.20;4.27;;;;;;;26.97;49.27;99190.44;5086934;28;20478;-82
2023/09/16 11:25:39;;;;;;;5.30;4.70;;;;;;;27.14;49.41;99186.22;5066476;28;20472;-85
2023/09/16 11:28:11;;;;;;;5.60;4.90;;;;;;;27.25;49.58;99183.91;5089484;28;20454;-86
2023/09/16 11:30:38;;;;;;;5.00;4.50;;;;;;;27.30;49.04;99174.13;5091296;28;21415;-84
2023/09/16 11:33:08;;;;;;;6.97;5.20;;;;;;;27.32;49.07;99177.41;5088795;28;20872;-82
2023/09/16 11:35:37;;;;;;;5.40;5.00;;;;;;;27.36;49.20;99170.56;5079794;28;20438;-82
2023/09/16 11:38:03;;;;;;;5.93;5.33;;;;;;;27.38;48.74;99164.94;5076914;28;20425;-85
2023/09/16 11:40:32;;;;;;;5.70;5.10;;;;;;;27.35;48.71;99165.38;5072233;28;20903;-83
2023/09/16 11:42:58;;;;;;;6.27;5.07;;;;;;;27.29;48.70;99168.94;5067462;28;20697;-82
2023/09/16 11:45:24;;;;;;;6.90;5.00;;;;;;;27.26;49.17;99164.81;5068969;28;20450;-84
2023/09/16 11:47:50;;;;;;;5.37;4.87;;;;;;;27.29;49.19;99158.97;5052841;28;20967;-84
2023/09/16 11:50:24;;;;;;;4.73;4.30;;;;;;;27.36;48.52;99158.94;5070766;28;20838;-83
2023/09/16 11:52:49;;;;;;;5.47;4.60;;;;;;;27.45;48.67;99163.03;5069973;28;20562;-81
2023/09/16 11:55:16;;;;;;;6.17;4.40;;;;;;;27.55;48.49;99166.06;5048401;28;20538;-82
2023/09/16 11:57:42;;;;;;;5.37;4.87;;;;;;;27.68;48.23;99164.31;5066829;28;20468;-82
2023/09/16 12:00:09;;;;;;;4.43;4.03;;;;;;;27.78;47.80;99161.94;5067275;28;20462;-85
2023/09/16 12:02:37;;;;;;;5.20;4.70;;;;;;;27.87;47.28;99152.56;5066993;28;20452;-87
2023/09/16 12:05:03;;;;;;;4.90;4.50;;;;;;;27.98;47.24;99138.34;5070181;28;20504;-84
2023/09/16 12:07:32;;;;;;;4.40;4.00;;;;;;;28.03;47.08;99137.69;5066579;28;20499;-86
2023/09/16 12:10:02;;;;;;;4.90;4.20;;;;;;;28.02;47.49;99130.63;5066570;28;21121;-85
2023/09/16 12:12:28;;;;;;;4.87;4.37;;;;;;;28.03;47.24;99143.09;5063085;28;20518;-85
2023/09/16 12:14:55;;;;;;;4.97;4.57;;;;;;;28.04;47.24;99149.31;5072065;28;20554;-82
2023/09/16 12:17:23;;;;;;;5.40;4.90;;;;;;;28.10;47.09;99143.00;5063672;28;20450;-82
2023/09/16 12:19:50;;;;;;;5.63;5.07;;;;;;;28.16;47.11;99145.63;5063309;28;20462;-82
2023/09/16 12:22:16;;;;;;;5.53;5.10;;;;;;;28.09;47.09;99130.56;5062886;28;20466;-83
2023/09/16 12:24:42;;;;;;;6.50;4.40;;;;;;;27.98;47.31;99132.94;5066586;28;20450;-82
2023/09/16 12:27:07;;;;;;;4.97;4.47;;;;;;;27.90;47.08;99133.22;5047888;28;20469;-85
2023/09/16 12:29:33;;;;;;;5.10;4.60;;;;;;;27.85;47.49;99133.06;5049717;28;20619;-81
2023/09/16 12:32:13;;;;;;;5.80;4.87;;;;;;;27.86;47.65;99142.81;5064601;28;20237;-82
2023/09/16 12:34:39;;;;;;;4.53;4.13;;;;;;;27.87;47.73;99144.47;5067215;28;20197;-82
2023/09/16 12:37:05;;;;;;;5.60;5.10;;;;;;;27.88;47.43;99140.72;5067130;28;21153;-84
2023/09/16 12:39:34;;;;;;;4.87;4.47;;;;;;;27.96;47.50;99145.84;5063311;28;20219;-83
2023/09/16 12:42:02;;;;;;;5.17;4.37;;;;;;;28.03;47.17;99151.19;5069021;28;20290;-83
2023/09/16 12:44:29;;;;;;;4.73;4.33;;;;;;;28.11;46.99;99152.75;5066242;28;20897;-82
2023/09/16 12:46:58;;;;;;;5.50;5.00;;;;;;;28.17;46.72;99151.88;5061293;28;20450;-81
2023/09/16 12:49:24;;;;;;;5.10;4.33;;;;;;;28.23;46.45;99151.78;5063060;28;20593;-82
2023/09/16 12:51:51;;;;;;;4.67;4.10;;;;;;;28.27;46.51;99146.75;5065357;28;20770;-81
2023/09/16 12:54:17;;;;;;;6.83;4.87;;;;;;;28.31;46.16;99147.16;5063201;28;20452;-83
2023/09/16 12:56:52;;;;;;;5.47;4.97;;;;;;;28.36;46.15;99155.41;5060052;28;20455;-81
2023/09/16 12:59:18;;;;;;;5.40;4.70;;;;;;;28.38;46.49;99154.16;5059612;28;20884;-82
2023/09/16 13:01:44;;;;;;;5.13;4.40;;;;;;;28.48;46.05;99155.53;5061319;28;20490;-82
2023/09/16 13:04:10;;;;;;;5.80;5.20;;;;;;;28.56;45.94;99160.63;5051979;28;20602;-81
2023/09/16 13:06:36;;;;;;;5.70;4.67;;;;;;;28.58;45.84;99159.34;5058010;28;20189;-81
2023/09/16 13:09:02;;;;;;;5.40;4.77;;;;;;;28.60;45.88;99159.97;5045937;28;20470;-81
2023/09/16 13:11:28;;;;;;;6.40;4.30;;;;;;;28.62;45.77;99165.13;5062655;28;20439;-81
2023/09/16 13:13:55;;;;;;;5.97;4.57;;;;;;;28.65;45.62;99165.50;5057922;28;20203;-81
2023/09/16 13:16:28;;;;;;;4.23;3.93;;;;;;;28.67;46.01;99149.88;5061368;28;20484;-82
2023/09/16 13:18:54;;;;;;;5.43;4.93;;;;;;;28.69;45.76;99152.38;5057188;28;20454;-82
2023/09/16 13:21:29;;;;;;;4.90;4.40;;;;;;;28.72;45.64;99142.97;5065219;28;20967;-81
2023/09/16 13:23:54;;;;;;;5.10;4.20;;;;;;;28.75;45.42;99147.94;5044969;28;20511;-81